Atlantic Legend — 3FPJ7 — position and weather

sailwx.info

Track history (hours):
 
Tides and Currents Weather Stations Pressure Air Temp Water Temp Dewpoint Dewpoint Depression Visibility Wind Speed Wind Dir Waves Ship Positions

Atlantic Legend

Last reported at 2018-Feb-08 05:30 UTC. Time now 2018-Feb-21 02:05 UTC.
Position N 01°15' E 103°57'.
Warning: this ship's position is 12 days out of date.

Length 229 m; draft 13.5 m.

Type: Other ship. MMSI: 351538000.

Date/timePositionNaut miles runAvg speedWind from/ knotsBaromVisibWave heightAir tempDewpointWater temp
2018-Feb-08 05:30N 01°15' E 103°57'3 5.6
2018-Feb-08 05:00N 01°13' E 103°55'4 7.1
2018-Feb-08 04:30N 01°12' E 103°52'4 7.8
2018-Feb-08 04:00N 01°10' E 103°48'4 7.6
2018-Feb-08 03:30N 01°08' E 103°46'510.1
2018-Feb-08 03:00N 01°04' E 103°42'13 8.9
2018-Feb-08 01:30N 01°09' E 103°29'3 5.4
2018-Feb-08 00:59N 01°11' E 103°27'5 8.7
2018-Feb-08 00:26N 01°13' E 103°23'  
Track history (hours):
 
Tides and Currents Weather Stations Pressure Air Temp Water Temp Dewpoint Dewpoint Depression Visibility Wind Speed Wind Dir Waves Ship Positions

Atlantic Legend

Last reported at 2018-Feb-08 05:30 UTC. Time now 2018-Feb-21 02:05 UTC.
Position N 01°15' E 103°57'.
Warning: this ship's position is 12 days out of date.

Length 229 m; draft 13.5 m.

Type: Other ship. MMSI: 351538000.

Date/timePositionNaut miles runAvg speedWind from/ knotsBaromVisibWave heightAir tempDewpointWater temp
2018-Feb-08 05:30N 01°15' E 103°57'3 5.6
2018-Feb-08 05:00N 01°13' E 103°55'4 7.1
2018-Feb-08 04:30N 01°12' E 103°52'4 7.8
2018-Feb-08 04:00N 01°10' E 103°48'4 7.6
2018-Feb-08 03:30N 01°08' E 103°46'510.1
2018-Feb-08 03:00N 01°04' E 103°42'13 8.9
2018-Feb-08 01:30N 01°09' E 103°29'3 5.4
2018-Feb-08 00:59N 01°11' E 103°27'5 8.7
2018-Feb-08 00:26N 01°13' E 103°23'  

Dump ship's entire track history